Time;durP1;ratioP1;P1;durP2;ratioP2;P2;SDS_P1;SDS_P2;PMS_P1;PMS_P2;Temp;Humidity;BMP_temperature;BMP_pressure;BME280_temperature;BME280_humidity;BME280_pressure;Samples;Min_cycle;Max_cycle;Signal;HPM_P1;HPM_P2
2023/10/28 00:02:23;;;;;;;18.13;4.45;;;;;;;11.31;100.00;98253.03;4990420;28;20388;-67
2023/10/28 00:04:51;;;;;;;16.45;3.13;;;;;;;11.40;100.00;98252.31;4989755;28;20054;-67
2023/10/28 00:07:18;;;;;;;19.15;3.83;;;;;;;11.41;100.00;98245.28;4988414;28;20065;-67
2023/10/28 00:09:44;;;;;;;19.45;3.70;;;;;;;11.36;100.00;98248.25;4990574;28;20042;-67
2023/10/28 00:12:13;;;;;;;17.80;3.75;;;;;;;11.38;100.00;98243.75;4989827;28;20054;-67
2023/10/28 00:14:40;;;;;;;16.38;4.03;;;;;;;11.38;100.00;98230.66;4989502;28;20060;-67
2023/10/28 00:17:07;;;;;;;21.60;3.97;;;;;;;11.22;100.00;98235.44;4985357;28;20077;-67
2023/10/28 00:19:34;;;;;;;16.52;3.17;;;;;;;11.38;100.00;98241.13;4989482;28;20110;-67
2023/10/28 00:22:01;;;;;;;18.38;3.58;;;;;;;11.38;100.00;98238.53;4986439;28;20058;-67
2023/10/28 00:24:27;;;;;;;17.65;3.88;;;;;;;11.12;100.00;98210.94;4989030;28;20058;-67
2023/10/28 00:26:54;;;;;;;18.67;3.15;;;;;;;11.44;100.00;98231.09;4990733;28;20046;-67
2023/10/28 00:29:21;;;;;;;18.13;4.20;;;;;;;11.38;100.00;98229.81;4993470;28;20054;-67
2023/10/28 00:31:47;;;;;;;19.98;3.70;;;;;;;11.31;100.00;98234.69;4992425;28;20050;-67
2023/10/28 00:34:15;;;;;;;12.90;3.25;;;;;;;11.25;100.00;98222.13;4994260;28;20065;-67
2023/10/28 00:36:41;;;;;;;23.52;3.63;;;;;;;11.19;100.00;98228.69;4990738;28;20492;-67
2023/10/28 00:39:10;;;;;;;20.00;4.28;;;;;;;11.26;100.00;98225.56;4993389;28;20061;-67
2023/10/28 00:41:37;;;;;;;16.83;3.05;;;;;;;11.34;100.00;98221.38;4987608;28;20050;-67
2023/10/28 00:44:04;;;;;;;16.80;3.63;;;;;;;11.30;100.00;98208.66;4987830;28;20066;-67
2023/10/28 00:46:31;;;;;;;19.92;3.80;;;;;;;11.47;100.00;98218.56;4987966;28;20060;-67
2023/10/28 00:48:59;;;;;;;18.10;3.70;;;;;;;11.24;100.00;98220.44;4988467;28;20065;-67
2023/10/28 00:51:27;;;;;;;19.85;4.43;;;;;;;11.15;100.00;98223.78;4994526;28;20043;-67
2023/10/28 00:53:55;;;;;;;17.27;3.33;;;;;;;11.21;100.00;98220.72;4985293;28;20046;-67
2023/10/28 00:56:22;;;;;;;17.15;3.40;;;;;;;11.23;100.00;98226.66;4992062;28;20160;-67
2023/10/28 00:58:51;;;;;;;14.77;3.65;;;;;;;11.46;100.00;98218.72;4990800;28;20076;-67
2023/10/28 01:01:19;;;;;;;15.63;3.33;;;;;;;11.23;100.00;98216.16;4989233;28;20052;-67
2023/10/28 01:03:46;;;;;;;18.50;3.22;;;;;;;11.25;100.00;98210.81;4989502;28;20053;-67
2023/10/28 01:06:13;;;;;;;13.32;3.17;;;;;;;11.31;100.00;98202.44;4991885;28;20167;-67
2023/10/28 01:08:40;;;;;;;17.55;3.78;;;;;;;11.27;100.00;98209.72;4990707;28;20056;-67
2023/10/28 01:11:07;;;;;;;22.17;4.25;;;;;;;11.20;100.00;98191.03;4987434;28;20158;-67
2023/10/28 01:13:34;;;;;;;17.40;2.85;;;;;;;11.26;100.00;98197.59;4988239;28;20765;-67
2023/10/28 01:16:00;;;;;;;21.75;3.53;;;;;;;10.99;100.00;98200.63;4989084;28;20113;-67
2023/10/28 01:18:27;;;;;;;17.60;3.78;;;;;;;11.15;100.00;98206.28;4992638;28;20053;-67
2023/10/28 01:20:54;;;;;;;13.60;2.55;;;;;;;11.27;100.00;98199.25;5007109;28;20093;-67
2023/10/28 01:23:21;;;;;;;19.63;4.15;;;;;;;11.17;100.00;98196.53;4988152;28;20523;-67
2023/10/28 01:25:47;;;;;;;17.95;3.38;;;;;;;11.37;100.00;98189.69;4992478;28;20070;-67
2023/10/28 01:28:15;;;;;;;22.85;3.63;;;;;;;11.28;100.00;98197.44;4989566;28;20042;-67
2023/10/28 01:30:42;;;;;;;15.98;3.20;;;;;;;11.12;100.00;98190.84;4989526;28;20074;-67
2023/10/28 01:33:08;;;;;;;18.80;3.55;;;;;;;11.31;100.00;98189.34;4995252;28;20058;-67
2023/10/28 01:35:35;;;;;;;16.75;3.33;;;;;;;11.30;100.00;98191.13;4988787;28;20088;-67
2023/10/28 01:38:04;;;;;;;22.20;4.38;;;;;;;11.26;100.00;98181.88;4996213;28;20045;-67
2023/10/28 01:40:31;;;;;;;16.50;4.97;;;;;;;11.23;100.00;98186.53;4988173;28;20092;-67
2023/10/28 01:42:58;;;;;;;22.42;3.78;;;;;;;11.19;100.00;98193.78;4987862;28;20404;-67
2023/10/28 01:45:25;;;;;;;18.85;3.63;;;;;;;11.11;100.00;98185.72;4988984;28;20539;-67
2023/10/28 01:47:52;;;;;;;17.05;3.30;;;;;;;11.26;100.00;98176.63;4988767;28;20046;-67
2023/10/28 01:50:21;;;;;;;16.40;3.25;;;;;;;11.10;100.00;98177.03;4991730;28;20052;-67
2023/10/28 01:52:48;;;;;;;24.20;3.33;;;;;;;11.23;100.00;98186.53;4986449;28;20419;-67
2023/10/28 01:55:14;;;;;;;13.23;2.92;;;;;;;11.30;100.00;98183.28;4989537;28;20055;-67
2023/10/28 01:57:41;;;;;;;20.58;4.63;;;;;;;11.01;100.00;98176.00;4989608;28;20057;-67
2023/10/28 02:00:12;;;;;;;13.05;3.30;;;;;;;11.07;100.00;98176.47;4988869;28;20058;-67
2023/10/28 02:02:41;;;;;;;18.00;3.78;;;;;;;11.01;100.00;98191.72;4986895;28;20480;-67
2023/10/28 02:05:08;;;;;;;14.93;3.30;;;;;;;11.03;100.00;98175.88;4985954;28;20105;-67
2023/10/28 02:07:36;;;;;;;13.18;2.97;;;;;;;11.12;100.00;98175.13;4989731;28;20148;-67
2023/10/28 02:10:04;;;;;;;16.23;3.20;;;;;;;11.11;100.00;98170.00;4989171;28;20043;-67
2023/10/28 02:12:34;;;;;;;12.20;2.92;;;;;;;11.17;100.00;98172.13;4987896;28;20054;-67
2023/10/28 02:15:06;;;;;;;13.25;2.53;;;;;;;11.09;100.00;98174.53;4990521;28;20054;-67
2023/10/28 02:17:35;;;;;;;16.83;3.90;;;;;;;11.11;100.00;98170.84;4987608;28;20058;-67
2023/10/28 02:20:03;;;;;;;19.17;3.17;;;;;;;11.04;100.00;98181.94;4989400;28;20054;-67
2023/10/28 02:22:32;;;;;;;12.20;3.35;;;;;;;11.21;100.00;98173.56;4988502;28;20133;-67
2023/10/28 02:24:59;;;;;;;19.35;3.30;;;;;;;11.22;100.00;98175.19;4987670;28;20153;-67
2023/10/28 02:27:26;;;;;;;15.68;3.47;;;;;;;11.23;100.00;98173.44;4988293;28;20056;-67
2023/10/28 02:29:53;;;;;;;16.25;3.30;;;;;;;11.15;100.00;98171.41;4986674;28;20053;-67
2023/10/28 02:32:20;;;;;;;22.48;3.40;;;;;;;11.10;100.00;98153.47;4987987;28;20083;-67
2023/10/28 02:34:46;;;;;;;13.52;2.88;;;;;;;10.97;100.00;98158.03;4987689;28;20129;-67
2023/10/28 02:37:14;;;;;;;13.57;3.00;;;;;;;10.71;100.00;98162.72;4989995;28;20073;-67
2023/10/28 02:39:41;;;;;;;12.55;2.75;;;;;;;11.02;100.00;98153.25;4989076;28;20046;-67
2023/10/28 02:42:07;;;;;;;15.13;3.42;;;;;;;11.09;100.00;98154.41;4988562;28;20047;-67
2023/10/28 02:44:35;;;;;;;10.35;2.50;;;;;;;11.05;100.00;98142.53;4990110;28;20058;-67
2023/10/28 02:47:02;;;;;;;19.60;3.85;;;;;;;11.00;100.00;98152.56;4996496;28;20047;-67
2023/10/28 02:49:28;;;;;;;16.30;3.08;;;;;;;11.05;100.00;98149.53;4992671;28;20050;-67
2023/10/28 02:51:55;;;;;;;15.20;2.78;;;;;;;11.17;100.00;98156.41;4992895;28;20043;-67
2023/10/28 02:54:22;;;;;;;17.85;3.92;;;;;;;11.07;100.00;98145.88;5001151;28;20050;-67
2023/10/28 02:56:48;;;;;;;14.30;3.28;;;;;;;11.12;100.00;98142.84;4993223;28;20358;-67
2023/10/28 02:59:15;;;;;;;20.17;3.17;;;;;;;10.99;100.00;98145.63;4999215;28;20061;-67
2023/10/28 03:01:42;;;;;;;12.57;2.88;;;;;;;11.08;100.00;98144.88;4996806;28;20069;-67
2023/10/28 03:04:10;;;;;;;16.17;3.20;;;;;;;11.03;100.00;98133.97;4992931;28;20134;-67
2023/10/28 03:06:36;;;;;;;11.95;3.10;;;;;;;10.98;100.00;98144.81;4994233;28;20046;-67
2023/10/28 03:09:04;;;;;;;13.15;2.35;;;;;;;11.02;100.00;98143.59;5000855;28;20482;-67
2023/10/28 03:11:31;;;;;;;14.20;2.60;;;;;;;11.13;100.00;98150.59;4993654;28;20265;-67
2023/10/28 03:13:57;;;;;;;20.70;3.72;;;;;;;11.09;100.00;98138.72;4997711;28;20432;-67
2023/10/28 03:16:25;;;;;;;20.38;3.17;;;;;;;10.84;100.00;98145.09;4998904;28;20467;-67
2023/10/28 03:18:52;;;;;;;14.73;3.67;;;;;;;11.05;100.00;98147.78;4998136;28;20100;-67
2023/10/28 03:21:19;;;;;;;11.05;2.65;;;;;;;11.19;100.00;98133.53;5001596;28;20511;-68
2023/10/28 03:23:46;;;;;;;18.10;2.72;;;;;;;11.34;100.00;98140.16;4992598;28;20054;-67
2023/10/28 03:26:13;;;;;;;17.25;3.67;;;;;;;11.11;100.00;98142.03;4992494;28;20054;-67
2023/10/28 03:28:40;;;;;;;16.92;4.15;;;;;;;11.14;100.00;98141.78;4997236;28;20090;-67
2023/10/28 03:31:09;;;;;;;21.13;3.10;;;;;;;11.17;100.00;98149.41;4993109;28;20554;-67
2023/10/28 03:33:40;;;;;;;14.63;2.83;;;;;;;11.10;100.00;98147.38;4997947;28;20531;-67
2023/10/28 03:36:10;;;;;;;15.82;3.70;;;;;;;11.24;100.00;98141.03;4992198;28;20050;-67
2023/10/28 03:38:37;;;;;;;16.52;2.65;;;;;;;11.07;100.00;98139.81;4993784;28;20073;-67
2023/10/28 03:41:11;;;;;;;14.20;3.47;;;;;;;11.09;100.00;98130.03;4991501;28;20054;-67
2023/10/28 03:43:38;;;;;;;14.18;3.15;;;;;;;11.17;100.00;98132.84;4992354;28;20786;-69
2023/10/28 03:46:05;;;;;;;10.50;2.88;;;;;;;11.11;100.00;98126.31;4995923;28;20416;-67
2023/10/28 03:48:33;;;;;;;15.93;2.92;;;;;;;11.18;100.00;98137.13;4999535;28;20480;-67
2023/10/28 03:51:02;;;;;;;13.20;3.78;;;;;;;11.13;100.00;98127.03;4995497;28;20136;-67
2023/10/28 03:53:30;;;;;;;14.85;2.95;;;;;;;11.20;100.00;98133.41;4991496;28;20082;-67
2023/10/28 03:55:56;;;;;;;14.80;3.85;;;;;;;11.17;100.00;98135.47;4989682;28;20046;-67
2023/10/28 03:58:23;;;;;;;17.30;3.05;;;;;;;11.29;100.00;98126.59;4992987;28;20089;-67
2023/10/28 04:00:53;;;;;;;15.27;2.97;;;;;;;11.22;100.00;98141.16;4992811;28;20400;-67
2023/10/28 04:03:23;;;;;;;17.55;2.70;;;;;;;11.14;100.00;98118.22;4986839;28;20507;-68
2023/10/28 04:05:51;;;;;;;15.02;3.28;;;;;;;11.16;100.00;98125.97;4993057;28;20550;-68
2023/10/28 04:08:17;;;;;;;20.33;3.28;;;;;;;11.09;100.00;98130.03;4992835;28;20480;-67
2023/10/28 04:10:46;;;;;;;14.80;2.80;;;;;;;11.31;100.00;98126.47;4997131;28;20038;-67
2023/10/28 04:13:13;;;;;;;24.30;3.78;;;;;;;11.02;100.00;98103.50;4992167;28;20559;-67
2023/10/28 04:15:40;;;;;;;14.13;2.95;;;;;;;11.19;100.00;98120.44;4992431;28;20049;-67
2023/10/28 04:18:07;;;;;;;16.58;3.53;;;;;;;11.15;100.00;98119.03;4989441;28;20132;-67
2023/10/28 04:20:35;;;;;;;18.95;3.60;;;;;;;11.09;100.00;98109.09;4992764;28;20062;-67
2023/10/28 04:23:02;;;;;;;13.63;3.20;;;;;;;11.14;100.00;98114.78;4987145;28;20410;-67
2023/10/28 04:25:29;;;;;;;13.00;3.50;;;;;;;11.29;100.00;98110.06;4993934;28;20085;-67
2023/10/28 04:27:56;;;;;;;20.02;3.65;;;;;;;11.18;100.00;98109.16;4992491;28;20058;-67
2023/10/28 04:30:23;;;;;;;18.25;3.65;;;;;;;11.15;100.00;98117.25;4991506;28;20519;-67
2023/10/28 04:32:52;;;;;;;19.38;3.55;;;;;;;11.13;100.00;98102.63;4991372;28;20046;-67
2023/10/28 04:35:19;;;;;;;20.83;3.47;;;;;;;11.28;100.00;98104.00;4997098;28;20499;-67
2023/10/28 04:37:55;;;;;;;20.45;3.95;;;;;;;11.21;100.00;98100.22;4996115;28;20132;-67
2023/10/28 04:40:24;;;;;;;19.05;3.80;;;;;;;11.18;100.00;98106.53;4997811;28;20050;-67
2023/10/28 04:42:52;;;;;;;15.23;2.83;;;;;;;11.36;100.00;98098.94;4992961;28;20050;-67
2023/10/28 04:45:20;;;;;;;22.77;4.53;;;;;;;11.27;100.00;98096.25;4990975;28;20097;-67
2023/10/28 04:47:48;;;;;;;20.52;3.53;;;;;;;11.33;100.00;98093.97;4991016;28;20050;-67
2023/10/28 04:50:17;;;;;;;17.55;3.25;;;;;;;11.24;100.00;98096.50;4991264;28;20054;-67
2023/10/28 04:52:43;;;;;;;17.67;3.17;;;;;;;11.32;100.00;98094.09;4991830;28;20050;-67
2023/10/28 04:55:12;;;;;;;21.73;4.57;;;;;;;11.39;100.00;98097.88;4995960;28;20042;-67
2023/10/28 04:57:40;;;;;;;14.75;4.05;;;;;;;11.30;100.00;98094.22;4992027;28;20061;-67
2023/10/28 05:00:08;;;;;;;13.40;3.05;;;;;;;11.39;100.00;98084.78;4994396;28;20481;-67
2023/10/28 05:02:35;;;;;;;21.63;3.53;;;;;;;11.40;100.00;98094.28;4990709;28;20069;-67
2023/10/28 05:05:03;;;;;;;17.83;4.22;;;;;;;11.32;100.00;98100.16;4994369;28;20121;-68
2023/10/28 05:07:30;;;;;;;16.25;3.58;;;;;;;11.18;100.00;98101.28;4992075;28;20108;-67
2023/10/28 05:09:57;;;;;;;22.30;4.78;;;;;;;11.30;100.00;98080.31;4992415;28;20202;-67
2023/10/28 05:12:23;;;;;;;16.33;3.92;;;;;;;11.23;100.00;98085.22;4993056;28;20085;-67
2023/10/28 05:14:50;;;;;;;18.85;3.35;;;;;;;11.15;100.00;98087.63;4993738;28;20054;-67
2023/10/28 05:17:16;;;;;;;17.15;4.13;;;;;;;11.23;100.00;98090.44;4991318;28;20464;-67
2023/10/28 05:19:43;;;;;;;21.65;5.22;;;;;;;11.19;100.00;98089.00;4992073;28;20703;-67
2023/10/28 05:22:10;;;;;;;19.33;3.80;;;;;;;11.38;100.00;98080.47;4989745;28;20045;-67
2023/10/28 05:24:37;;;;;;;14.55;3.08;;;;;;;11.29;100.00;98089.09;4992083;28;20054;-67
2023/10/28 05:27:04;;;;;;;22.60;3.90;;;;;;;11.30;100.00;98088.97;4991136;28;20046;-67
2023/10/28 05:29:31;;;;;;;18.83;3.75;;;;;;;11.27;100.00;98091.03;4991714;28;20126;-67
2023/10/28 05:31:58;;;;;;;16.50;3.47;;;;;;;11.39;100.00;98085.59;4990073;28;20046;-67
2023/10/28 05:34:25;;;;;;;19.38;3.65;;;;;;;11.39;100.00;98072.50;4985208;28;20057;-67
2023/10/28 05:36:51;;;;;;;20.17;3.10;;;;;;;11.42;100.00;98079.28;4990772;28;20050;-67
2023/10/28 05:39:20;;;;;;;20.92;4.53;;;;;;;11.35;100.00;98083.34;4995878;28;20050;-67
2023/10/28 05:41:50;;;;;;;14.40;2.90;;;;;;;11.25;100.00;98079.84;4989465;28;20043;-67
2023/10/28 05:44:17;;;;;;;15.05;2.97;;;;;;;11.37;100.00;98071.78;4994009;28;20387;-67
2023/10/28 05:46:44;;;;;;;21.40;3.83;;;;;;;11.45;100.00;98072.94;4994520;28;20050;-67
2023/10/28 05:49:12;;;;;;;15.73;3.20;;;;;;;11.26;100.00;98071.00;4989871;28;20065;-67
2023/10/28 05:51:39;;;;;;;15.25;2.83;;;;;;;11.33;100.00;98093.97;4988899;28;20452;-67
2023/10/28 05:54:06;;;;;;;17.60;3.60;;;;;;;11.22;100.00;98080.91;4990274;28;20050;-66
2023/10/28 05:56:32;;;;;;;12.90;3.10;;;;;;;11.42;100.00;98075.81;4992979;28;20058;-67
2023/10/28 05:59:00;;;;;;;14.63;4.00;;;;;;;11.39;100.00;98074.28;4991684;28;20050;-66
2023/10/28 06:01:27;;;;;;;27.38;4.10;;;;;;;11.45;100.00;98071.16;4991510;28;20396;-66
2023/10/28 06:03:54;;;;;;;22.42;4.13;;;;;;;11.24;100.00;98086.84;4987108;28;20128;-66
2023/10/28 06:06:21;;;;;;;19.83;3.78;;;;;;;11.30;100.00;98080.31;4989424;28;20053;-67
2023/10/28 06:08:47;;;;;;;14.80;3.03;;;;;;;11.25;100.00;98064.13;4990786;28;20050;-67
2023/10/28 06:11:14;;;;;;;14.85;3.72;;;;;;;11.48;100.00;98068.28;4991618;28;20479;-67
2023/10/28 06:13:41;;;;;;;19.10;4.38;;;;;;;11.52;100.00;98067.03;4989322;28;20077;-67
2023/10/28 06:16:07;;;;;;;13.10;3.53;;;;;;;11.43;100.00;98062.59;4993024;28;20050;-67
2023/10/28 06:18:34;;;;;;;15.10;3.20;;;;;;;11.32;100.00;98065.28;4993130;28;20058;-67
2023/10/28 06:21:01;;;;;;;23.00;3.60;;;;;;;11.20;100.00;98081.03;4989818;28;20050;-67
2023/10/28 06:23:27;;;;;;;19.38;3.45;;;;;;;11.31;100.00;98074.09;4990965;28;20480;-67
2023/10/28 06:25:55;;;;;;;14.18;2.88;;;;;;;11.23;100.00;98068.66;4989920;28;20057;-67
2023/10/28 06:28:22;;;;;;;20.75;4.05;;;;;;;11.32;100.00;98086.25;4990044;28;20054;-67
2023/10/28 06:30:49;;;;;;;18.15;3.47;;;;;;;11.37;100.00;98073.59;4995948;28;20046;-68
2023/10/28 06:33:17;;;;;;;23.70;4.20;;;;;;;11.27;100.00;98088.41;4992014;28;20594;-68
2023/10/28 06:35:44;;;;;;;19.00;3.92;;;;;;;11.13;100.00;98102.63;4989505;28;20042;-67
2023/10/28 06:38:11;;;;;;;26.02;4.25;;;;;;;11.09;100.00;98093.38;4991362;28;20042;-67
2023/10/28 06:40:38;;;;;;;22.15;3.50;;;;;;;11.20;100.00;98085.44;4989194;28;20054;-67
2023/10/28 06:43:05;;;;;;;21.17;5.82;;;;;;;11.23;100.00;98100.94;4989296;28;20064;-67
2023/10/28 06:45:32;;;;;;;19.70;4.07;;;;;;;11.25;100.00;98092.94;4990391;28;20445;-67
2023/10/28 06:47:59;;;;;;;19.13;3.65;;;;;;;11.20;100.00;98096.75;4985097;28;20046;-67
2023/10/28 06:50:26;;;;;;;23.98;3.67;;;;;;;11.02;100.00;98101.72;4989199;28;20104;-67
2023/10/28 06:52:52;;;;;;;18.27;3.40;;;;;;;11.14;100.00;98104.31;4987837;28;20117;-67
2023/10/28 06:55:19;;;;;;;23.98;3.97;;;;;;;11.17;100.00;98107.50;4994850;28;20070;-67
2023/10/28 06:57:46;;;;;;;26.48;4.68;;;;;;;11.10;100.00;98118.59;4990053;28;20054;-68
2023/10/28 07:00:16;;;;;;;17.85;3.67;;;;;;;11.16;100.00;98111.06;4997309;28;20464;-67
2023/10/28 07:02:43;;;;;;;15.23;3.63;;;;;;;11.23;100.00;98107.97;4984698;28;20101;-67
2023/10/28 07:05:10;;;;;;;22.65;3.58;;;;;;;11.03;100.00;98113.03;4989901;28;20069;-68
2023/10/28 07:07:38;;;;;;;17.38;3.33;;;;;;;11.18;100.00;98118.81;4990264;28;20050;-67
2023/10/28 07:10:06;;;;;;;21.55;3.42;;;;;;;11.23;100.00;98118.44;4988878;28;20057;-67
2023/10/28 07:12:33;;;;;;;14.13;3.40;;;;;;;11.23;100.00;98116.63;4986797;28;20562;-67
2023/10/28 07:15:00;;;;;;;21.17;4.05;;;;;;;11.29;100.00;98118.75;4989072;28;20042;-67
2023/10/28 07:17:26;;;;;;;17.15;3.63;;;;;;;11.36;100.00;98116.44;4989405;28;20054;-67
2023/10/28 07:19:53;;;;;;;14.60;3.45;;;;;;;11.32;100.00;98113.25;4989891;28;20081;-67
2023/10/28 07:22:20;;;;;;;23.27;4.45;;;;;;;11.35;100.00;98125.25;4988174;28;20149;-68
2023/10/28 07:24:47;;;;;;;20.08;3.95;;;;;;;11.22;100.00;98122.81;4989577;28;20047;-68
2023/10/28 07:27:14;;;;;;;19.70;3.33;;;;;;;11.24;100.00;98123.53;4989257;28;20138;-67
2023/10/28 07:29:41;;;;;;;18.05;3.88;;;;;;;11.19;100.00;98121.28;4987452;28;20053;-67
2023/10/28 07:32:09;;;;;;;15.93;3.17;;;;;;;11.30;100.00;98115.19;4988586;28;20047;-67
2023/10/28 07:34:35;;;;;;;22.40;3.65;;;;;;;11.31;100.00;98119.44;4987950;28;20039;-67
2023/10/28 07:37:05;;;;;;;16.70;3.63;;;;;;;11.08;100.00;98099.56;4991361;28;20623;-67
2023/10/28 07:39:32;;;;;;;20.83;4.15;;;;;;;11.20;100.00;98132.59;4991975;28;20103;-67
2023/10/28 07:41:59;;;;;;;22.95;3.95;;;;;;;11.08;100.00;98118.72;4986763;28;20057;-67
2023/10/28 07:44:26;;;;;;;15.82;3.60;;;;;;;11.02;100.00;98109.56;4986647;28;20124;-67
2023/10/28 07:46:53;;;;;;;17.33;3.67;;;;;;;11.17;100.00;98117.13;4992573;28;20050;-67
2023/10/28 07:49:20;;;;;;;22.17;5.03;;;;;;;11.27;100.00;98106.75;4992548;28;20046;-67
2023/10/28 07:51:47;;;;;;;23.50;4.35;;;;;;;11.10;100.00;98106.34;4991338;28;20038;-67
2023/10/28 07:54:14;;;;;;;25.85;5.10;;;;;;;11.19;100.00;98113.44;4990113;28;20057;-67
2023/10/28 07:56:42;;;;;;;21.45;4.40;;;;;;;11.27;100.00;98107.56;4991479;28;20060;-67
2023/10/28 07:59:09;;;;;;;21.83;3.92;;;;;;;11.21;100.00;98116.75;4986457;28;20627;-67
2023/10/28 08:01:39;;;;;;;17.08;4.13;;;;;;;11.34;100.00;98111.34;4990627;28;20047;-67
2023/10/28 08:04:06;;;;;;;20.98;3.35;;;;;;;11.33;100.00;98124.56;4988200;28;20483;-67
2023/10/28 08:06:34;;;;;;;20.23;3.35;;;;;;;11.45;100.00;98113.06;4990500;28;20058;-67
2023/10/28 08:09:05;;;;;;;17.13;3.55;;;;;;;11.49;100.00;98116.25;4992621;28;20608;-67
2023/10/28 08:11:32;;;;;;;21.67;4.20;;;;;;;11.40;100.00;98102.13;4990854;28;20052;-67
2023/10/28 08:14:00;;;;;;;26.92;6.97;;;;;;;11.30;100.00;98101.25;4990763;28;20089;-67
2023/10/28 08:16:27;;;;;;;20.50;7.47;;;;;;;11.38;100.00;98125.88;4991954;28;20089;-67
2023/10/28 08:18:54;;;;;;;32.13;13.55;;;;;;;11.36;100.00;98098.94;4992007;28;20445;-67
2023/10/28 08:21:21;;;;;;;53.17;22.88;;;;;;;11.29;100.00;98110.88;4991699;28;20126;-66
2023/10/28 08:23:49;;;;;;;41.20;14.27;;;;;;;11.28;100.00;98113.63;4991320;28;20054;-67
2023/10/28 08:26:18;;;;;;;25.58;8.38;;;;;;;11.36;100.00;98113.84;4994267;28;20082;-68
2023/10/28 08:28:52;;;;;;;24.77;9.18;;;;;;;11.44;100.00;98123.66;4992080;28;20103;-67
2023/10/28 08:31:19;;;;;;;28.70;7.63;;;;;;;11.35;100.00;98112.16;4985583;28;20062;-67
2023/10/28 08:33:50;;;;;;;26.52;7.95;;;;;;;11.34;100.00;98121.00;4994407;28;20439;-67
2023/10/28 08:36:17;;;;;;;22.80;7.38;;;;;;;11.50;100.00;98113.50;4981071;28;20054;-67
2023/10/28 08:38:47;;;;;;;20.38;6.75;;;;;;;11.52;100.00;98105.53;4991868;28;20486;-67
2023/10/28 08:41:19;;;;;;;20.88;4.28;;;;;;;11.41;100.00;98111.66;4990323;28;20070;-67
2023/10/28 08:43:46;;;;;;;21.95;5.75;;;;;;;11.39;100.00;98111.78;4990536;28;20050;-67
2023/10/28 08:46:13;;;;;;;21.45;7.57;;;;;;;11.45;100.00;98110.44;4984470;28;20054;-67
2023/10/28 08:48:40;;;;;;;20.33;7.20;;;;;;;11.34;100.00;98107.91;4988949;28;20050;-69
2023/10/28 08:51:08;;;;;;;22.13;6.97;;;;;;;11.15;100.00;98121.66;4986112;28;20130;-67
2023/10/28 08:53:36;;;;;;;25.75;5.57;;;;;;;11.31;100.00;98116.00;4987714;28;20388;-67
2023/10/28 08:56:03;;;;;;;22.00;5.22;;;;;;;11.29;100.00;98128.41;4982036;28;20069;-67
2023/10/28 08:58:30;;;;;;;19.23;5.32;;;;;;;11.21;100.00;98131.66;4990970;28;20050;-68
2023/10/28 09:01:01;;;;;;;18.80;4.32;;;;;;;11.08;100.00;98120.50;4988553;28;20042;-68
2023/10/28 09:03:31;;;;;;;19.55;4.82;;;;;;;11.32;100.00;98113.25;4988537;28;20178;-67
2023/10/28 09:06:01;;;;;;;17.90;4.38;;;;;;;11.39;100.00;98130.13;4989331;28;20046;-68
2023/10/28 09:08:28;;;;;;;15.82;3.90;;;;;;;11.31;100.00;98136.94;4989082;28;20057;-68
2023/10/28 09:10:56;;;;;;;17.80;3.83;;;;;;;11.24;100.00;98128.75;4983419;28;20412;-68
2023/10/28 09:13:23;;;;;;;17.25;4.13;;;;;;;11.34;100.00;98134.09;4987214;28;20499;-67
2023/10/28 09:15:51;;;;;;;17.30;4.38;;;;;;;11.31;100.00;98126.47;4986293;28;20485;-67
2023/10/28 09:18:18;;;;;;;21.65;4.20;;;;;;;11.44;100.00;98127.13;4988842;28;20500;-67
2023/10/28 09:20:44;;;;;;;30.33;4.97;;;;;;;11.40;100.00;98133.56;4991763;28;20121;-67
2023/10/28 09:23:13;;;;;;;20.17;5.38;;;;;;;11.36;100.00;98130.38;4989755;28;20038;-67
2023/10/28 09:25:40;;;;;;;31.15;4.95;;;;;;;11.31;100.00;98129.09;4985078;28;20397;-67
2023/10/28 09:28:15;;;;;;;16.98;4.45;;;;;;;11.42;100.00;98120.34;4991225;28;20072;-67
2023/10/28 09:30:46;;;;;;;19.23;4.25;;;;;;;11.45;100.00;98123.53;4988037;28;20420;-68
2023/10/28 09:33:14;;;;;;;18.65;4.55;;;;;;;11.28;100.00;98131.97;4989263;28;20138;-67
2023/10/28 09:35:44;;;;;;;19.13;4.22;;;;;;;11.21;100.00;98136.88;4988905;28;20050;-67
2023/10/28 09:38:14;;;;;;;19.45;4.13;;;;;;;11.30;100.00;98123.03;4990273;28;20411;-67
2023/10/28 09:40:41;;;;;;;18.95;3.80;;;;;;;11.30;100.00;98124.84;4989537;28;20052;-67
2023/10/28 09:43:08;;;;;;;15.43;3.88;;;;;;;11.34;100.00;98123.63;4976097;28;20055;-67
2023/10/28 09:45:37;;;;;;;21.02;4.28;;;;;;;11.37;100.00;98123.38;4985525;28;20078;-67
2023/10/28 09:48:16;;;;;;;19.23;4.80;;;;;;;11.55;100.00;98113.97;4989714;28;20054;-67
2023/10/28 09:50:49;;;;;;;24.10;5.00;;;;;;;11.66;100.00;98107.00;4989372;28;20053;-67
2023/10/28 09:53:17;;;;;;;12.48;3.40;;;;;;;11.50;100.00;98097.78;4983111;28;20149;-67
2023/10/28 09:55:47;;;;;;;19.70;4.18;;;;;;;11.56;100.00;98115.63;4990408;28;20060;-67
2023/10/28 09:58:57;;;;;;;20.85;4.55;;;;;;;11.50;100.00;98121.38;4989479;28;20077;-67
2023/10/28 10:01:35;;;;;;;21.13;4.32;;;;;;;11.33;100.00;98119.31;4987877;28;20050;-67
2023/10/28 10:04:21;;;;;;;19.65;3.95;;;;;;;11.46;100.00;98127.84;4987790;28;20082;-67
2023/10/28 10:06:48;;;;;;;23.40;4.90;;;;;;;11.36;100.00;98124.31;4987629;28;20062;-67
2023/10/28 10:09:18;;;;;;;18.90;5.15;;;;;;;11.46;100.00;98119.16;4989256;28;20053;-67
2023/10/28 10:11:45;;;;;;;24.15;4.50;;;;;;;11.56;100.00;98118.25;4988075;28;20054;-67
2023/10/28 10:14:13;;;;;;;19.08;4.15;;;;;;;11.53;100.00;98120.31;4989339;28;20050;-67
2023/10/28 10:16:59;;;;;;;23.27;5.55;;;;;;;11.53;100.00;98117.69;4989427;28;20507;-67
2023/10/28 10:19:35;;;;;;;19.67;4.35;;;;;;;11.38;100.00;98119.78;4988272;28;20042;-67
2023/10/28 10:22:03;;;;;;;23.95;6.82;;;;;;;11.48;100.00;98122.47;4986668;28;20054;-67
2023/10/28 10:24:30;;;;;;;35.80;7.43;;;;;;;11.52;100.00;98132.56;4990761;28;20046;-67
2023/10/28 10:26:59;;;;;;;21.55;5.63;;;;;;;11.50;100.00;98121.38;4988431;28;20061;-67
2023/10/28 10:29:26;;;;;;;21.40;4.63;;;;;;;11.30;100.00;98101.25;4990167;28;20119;-69
2023/10/28 10:31:55;;;;;;;27.67;5.70;;;;;;;11.30;100.00;98104.69;4988456;28;20514;-69
2023/10/28 10:34:45;;;;;;;21.23;5.22;;;;;;;11.41;100.00;98127.38;4988414;28;20050;-69
2023/10/28 10:37:25;;;;;;;23.85;5.63;;;;;;;11.14;100.00;98138.34;4982964;28;20051;-69
2023/10/28 10:39:53;;;;;;;24.95;5.18;;;;;;;11.09;100.00;98146.56;4988601;28;20767;-69
2023/10/28 10:42:20;;;;;;;31.38;6.65;;;;;;;11.19;100.00;98157.09;4982919;28;20148;-69
2023/10/28 10:44:47;;;;;;;22.55;5.28;;;;;;;11.14;100.00;98149.66;4988602;28;20404;-68
2023/10/28 10:47:17;;;;;;;32.25;6.30;;;;;;;11.36;100.00;98155.75;4988839;28;20055;-68
2023/10/28 10:49:44;;;;;;;24.35;4.72;;;;;;;11.17;100.00;98143.31;4984766;28;20057;-69
2023/10/28 10:52:11;;;;;;;24.15;4.38;;;;;;;11.37;100.00;98163.50;4987573;28;20120;-69
2023/10/28 10:54:39;;;;;;;22.63;5.03;;;;;;;11.14;100.00;98149.66;4985324;28;20060;-68
2023/10/28 10:57:07;;;;;;;20.08;6.07;;;;;;;11.35;100.00;98149.69;4986055;28;20046;-68
2023/10/28 10:59:36;;;;;;;19.80;4.65;;;;;;;11.38;100.00;98156.44;4988560;28;20562;-68
2023/10/28 11:02:03;;;;;;;26.55;5.32;;;;;;;11.21;100.00;98158.66;4985539;28;20050;-68
2023/10/28 11:04:34;;;;;;;24.50;5.07;;;;;;;11.15;100.00;98159.16;4988128;28;20137;-68
2023/10/28 11:07:02;;;;;;;15.95;4.32;;;;;;;11.24;100.00;98154.13;4989019;28;20050;-68
2023/10/28 11:09:29;;;;;;;20.83;4.85;;;;;;;11.14;100.00;98148.81;4981498;28;20062;-68
2023/10/28 11:11:56;;;;;;;20.40;5.65;;;;;;;11.16;100.00;98152.16;4989540;28;20546;-68
2023/10/28 11:14:24;;;;;;;20.13;3.30;;;;;;;10.92;100.00;98147.91;4991132;28;20086;-68
2023/10/28 11:16:51;;;;;;;16.52;3.65;;;;;;;10.99;100.00;98163.97;4991310;28;20046;-68
2023/10/28 11:19:18;;;;;;;19.23;4.07;;;;;;;11.09;100.00;98154.41;4997194;28;20054;-68
2023/10/28 11:21:46;;;;;;;20.02;4.38;;;;;;;11.20;100.00;98127.34;4991261;28;20054;-68